Time;durP1;ratioP1;P1;durP2;ratioP2;P2;SDS_P1;SDS_P2;PMS_P1;PMS_P2;Temp;Humidity;BMP_temperature;BMP_pressure;BME280_temperature;BME280_humidity;BME280_pressure;Samples;Min_cycle;Max_cycle;Signal;HPM_P1;HPM_P2
2021/12/20 00:01:32;;;;;;;7.00;4.37;;;;;;;7.41;57.95;98774.13;4330359;33;33198;-80
2021/12/20 00:04:00;;;;;;;8.10;4.75;;;;;;;6.97;58.98;98776.69;4330574;33;35040;-85
2021/12/20 00:06:28;;;;;;;8.10;4.55;;;;;;;7.51;57.48;98786.38;4329891;33;33949;-82
2021/12/20 00:08:55;;;;;;;7.18;4.85;;;;;;;8.07;55.64;98781.34;4330641;33;33777;-80
2021/12/20 00:11:23;;;;;;;7.20;3.92;;;;;;;7.21;57.95;98787.50;4330460;33;33717;-78
2021/12/20 00:13:51;;;;;;;6.22;3.83;;;;;;;7.34;57.69;98775.72;4330474;33;34575;-79
2021/12/20 00:16:18;;;;;;;7.93;3.90;;;;;;;7.72;56.77;98784.16;4329913;33;33550;-78
2021/12/20 00:18:46;;;;;;;6.72;4.62;;;;;;;8.37;54.76;98777.47;4330434;33;34232;-80
2021/12/20 00:21:13;;;;;;;6.45;4.28;;;;;;;7.56;57.10;98784.72;4329376;33;33445;-79
2021/12/20 00:23:41;;;;;;;6.93;4.47;;;;;;;7.74;56.71;98779.06;4330113;33;33458;-79
2021/12/20 00:26:09;;;;;;;6.50;4.20;;;;;;;8.69;53.83;98771.12;4330679;33;33861;-79
2021/12/20 00:28:38;;;;;;;6.25;3.90;;;;;;;8.26;54.77;98775.63;4316926;33;34210;-78
2021/12/20 00:31:05;;;;;;;8.07;4.37;;;;;;;8.15;55.21;98777.16;4328939;33;34153;-80
2021/12/20 00:33:34;;;;;;;6.18;3.65;;;;;;;8.63;54.27;98771.00;4317302;33;34612;-80
2021/12/20 00:36:03;;;;;;;6.40;4.07;;;;;;;8.86;53.56;98773.91;4329337;33;34114;-79
2021/12/20 00:41:23;;;;;;;5.75;3.42;;;;;;;7.87;56.20;98772.38;4330258;33;33460;-80
2021/12/20 00:43:51;;;;;;;5.82;3.67;;;;;;;7.16;58.41;98781.41;4316985;33;34696;-79
2021/12/20 00:46:18;;;;;;;5.82;3.62;;;;;;;7.52;57.41;98786.38;4316709;33;34910;-78
2021/12/20 00:48:46;;;;;;;6.75;3.87;;;;;;;7.31;58.20;98797.19;4330151;33;34307;-79
2021/12/20 00:51:13;;;;;;;6.25;4.12;;;;;;;7.28;58.39;98794.53;4330532;33;34628;-82
2021/12/20 00:53:41;;;;;;;7.45;4.25;;;;;;;7.87;57.06;98809.38;4329630;33;33058;-81
2021/12/20 00:56:08;;;;;;;5.90;3.37;;;;;;;8.57;54.46;98807.13;4329621;33;33820;-81
2021/12/20 00:58:36;;;;;;;6.07;3.80;;;;;;;8.29;55.66;98804.06;4316478;33;33712;-81
2021/12/20 01:01:06;;;;;;;5.22;3.08;;;;;;;7.98;56.48;98814.72;4326672;33;80605;-82
2021/12/20 01:03:34;;;;;;;5.40;3.42;;;;;;;7.86;56.84;98809.34;4329729;33;34730;-81
2021/12/20 01:06:02;;;;;;;4.90;2.85;;;;;;;7.15;58.49;98815.72;4329826;33;33942;-79
2021/12/20 01:08:34;;;;;;;6.28;2.90;;;;;;;7.86;56.88;98822.25;4329721;33;34466;-79
2021/12/20 01:11:03;;;;;;;6.28;3.33;;;;;;;7.13;58.72;98820.00;4329538;33;35356;-79
2021/12/20 01:13:32;;;;;;;5.72;3.00;;;;;;;7.06;59.11;98837.03;4328858;33;33724;-79
2021/12/20 01:16:03;;;;;;;6.05;2.72;;;;;;;8.19;55.62;98829.72;4325164;33;33963;-80
2021/12/20 01:18:31;;;;;;;6.07;2.80;;;;;;;7.62;56.93;98836.47;4329676;33;34259;-82
2021/12/20 01:20:58;;;;;;;6.20;3.28;;;;;;;7.44;57.67;98838.66;4329687;33;33789;-79
2021/12/20 01:23:26;;;;;;;6.05;3.35;;;;;;;7.04;59.66;98840.41;4329490;33;34660;-78
2021/12/20 01:25:53;;;;;;;5.40;3.10;;;;;;;7.17;59.41;98839.00;4329893;33;33960;-80
2021/12/20 01:28:22;;;;;;;4.72;2.70;;;;;;;7.31;58.89;98856.47;4330027;33;35277;-78
2021/12/20 01:30:49;;;;;;;5.57;3.15;;;;;;;7.45;57.88;98855.88;4329315;33;34299;-79
2021/12/20 01:33:17;;;;;;;6.12;3.12;;;;;;;6.38;61.65;98845.78;4329551;33;33924;-80
2021/12/20 01:35:44;;;;;;;5.75;2.85;;;;;;;7.30;59.46;98846.12;4329678;33;34285;-78
2021/12/20 01:38:13;;;;;;;6.10;3.20;;;;;;;6.41;62.22;98845.88;4329551;33;34106;-78
2021/12/20 01:40:41;;;;;;;5.82;2.65;;;;;;;6.37;62.82;98850.06;4329589;33;34364;-79
2021/12/20 01:43:11;;;;;;;6.93;3.20;;;;;;;6.94;61.52;98846.22;4329616;33;33957;-79
2021/12/20 01:45:38;;;;;;;5.78;3.00;;;;;;;7.73;58.94;98834.94;4329716;33;33851;-82
2021/12/20 01:48:12;;;;;;;4.80;2.72;;;;;;;7.42;59.09;98827.44;4331609;33;34071;-78
2021/12/20 01:53:16;;;;;;;5.50;3.20;;;;;;;7.69;58.25;98848.63;4331613;33;33614;-83
2021/12/20 01:55:44;;;;;;;5.68;3.10;;;;;;;8.08;57.10;98834.72;4318498;33;34262;-78
2021/12/20 01:58:12;;;;;;;6.00;2.83;;;;;;;7.99;57.60;98826.78;4331508;33;33842;-78
2021/12/20 02:03:26;;;;;;;7.45;3.35;;;;;;;7.62;59.24;98856.22;4330988;33;33407;-78
2021/12/20 02:05:57;;;;;;;8.05;3.12;;;;;;;7.74;58.75;98861.62;4331813;33;34053;-81
2021/12/20 02:08:28;;;;;;;7.03;3.10;;;;;;;8.08;57.73;98854.50;4318515;33;35096;-79
2021/12/20 02:11:03;;;;;;;5.45;2.92;;;;;;;7.23;59.98;98860.59;4318591;33;34461;-84
2021/12/20 02:13:30;;;;;;;4.15;3.12;;;;;;;7.61;59.16;98863.06;4331647;33;33248;-78
2021/12/20 02:16:00;;;;;;;4.75;3.17;;;;;;;6.91;61.20;98861.62;4331119;33;33771;-79
2021/12/20 02:18:30;;;;;;;6.55;2.80;;;;;;;7.62;58.84;98876.88;4331480;33;35065;-78
2021/12/20 02:20:58;;;;;;;5.30;2.60;;;;;;;7.82;58.21;98877.25;4331162;33;33986;-78
2021/12/20 02:23:27;;;;;;;5.72;3.08;;;;;;;7.39;59.30;98874.69;4331094;33;34599;-78
2021/12/20 02:25:54;;;;;;;4.55;2.42;;;;;;;8.04;57.43;98888.00;4330430;33;33889;-79
2021/12/20 02:28:23;;;;;;;7.03;2.92;;;;;;;7.87;57.79;98891.09;4318143;33;33880;-78
2021/12/20 02:39:00;;;;;;;4.87;2.50;;;;;;;7.48;58.67;98889.47;4322183;33;34880;-78
2021/12/20 02:41:32;;;;;;;4.20;2.40;;;;;;;7.83;56.72;98885.00;4331256;33;34578;-80
2021/12/20 02:44:10;;;;;;;3.62;1.95;;;;;;;7.44;58.10;98887.69;4331555;33;34019;-82
2021/12/20 02:49:14;;;;;;;3.95;2.05;;;;;;;6.63;60.44;98901.31;4331214;33;34228;-78
2021/12/20 02:51:43;;;;;;;5.43;2.87;;;;;;;6.69;59.76;98904.03;4330396;33;33330;-79
2021/12/20 02:54:16;;;;;;;4.07;2.03;;;;;;;7.38;57.87;98910.75;4331266;33;33719;-81
2021/12/20 02:56:44;;;;;;;2.75;1.20;;;;;;;8.52;54.07;98912.09;4330341;33;35155;-78
2021/12/20 02:59:12;;;;;;;4.78;1.62;;;;;;;8.36;54.60;98920.41;4330231;33;35046;-81
2021/12/20 03:01:43;;;;;;;3.62;1.62;;;;;;;8.28;54.52;98923.72;4330753;33;33804;-79
2021/12/20 03:04:11;;;;;;;2.53;1.20;;;;;;;8.55;53.73;98925.06;4330649;33;33891;-78
2021/12/20 03:06:53;;;;;;;4.10;1.83;;;;;;;8.78;53.07;98921.13;4316836;33;35044;-78
2021/12/20 03:09:26;;;;;;;2.80;1.30;;;;;;;8.86;52.39;98925.56;4330714;33;34953;-85
2021/12/20 03:11:58;;;;;;;3.30;1.50;;;;;;;9.24;51.65;98934.78;4331319;33;33302;-83
2021/12/20 03:14:32;;;;;;;3.58;1.40;;;;;;;7.73;55.34;98938.16;4330943;33;34651;-80
2021/12/20 03:17:00;;;;;;;3.58;1.90;;;;;;;8.92;51.55;98920.50;4330226;33;34949;-78
2021/12/20 03:19:29;;;;;;;1.73;1.08;;;;;;;7.48;55.82;98928.16;4317041;33;34476;-80
2021/12/20 03:21:57;;;;;;;2.70;1.50;;;;;;;6.97;57.02;98921.91;4330592;33;33334;-80
2021/12/20 03:24:24;;;;;;;2.83;1.48;;;;;;;8.77;51.76;98911.66;4330415;33;32573;-84
2021/12/20 03:26:52;;;;;;;2.42;1.30;;;;;;;7.01;56.25;98922.84;4317218;33;34333;-79
2021/12/20 03:29:20;;;;;;;3.35;1.85;;;;;;;8.13;53.34;98930.31;4317601;33;34187;-80
2021/12/20 03:31:47;;;;;;;2.47;1.50;;;;;;;7.58;55.10;98927.53;4317297;33;34227;-79
2021/12/20 03:34:15;;;;;;;4.45;2.10;;;;;;;7.77;53.96;98924.47;4331061;33;34836;-79
2021/12/20 03:36:43;;;;;;;3.40;1.40;;;;;;;7.53;54.66;98929.13;4330569;33;34248;-80
2021/12/20 03:39:11;;;;;;;3.37;1.80;;;;;;;6.67;56.63;98936.63;4317557;33;34074;-84
2021/12/20 03:41:39;;;;;;;4.22;1.75;;;;;;;6.48;57.13;98941.31;4331375;33;35243;-83
2021/12/20 03:44:07;;;;;;;4.03;1.70;;;;;;;6.53;56.69;98938.88;4330267;33;33838;-82
2021/12/20 03:46:35;;;;;;;3.45;1.58;;;;;;;6.59;56.31;98944.16;4330222;33;34168;-80
2021/12/20 03:49:04;;;;;;;3.90;1.80;;;;;;;6.15;57.36;98951.63;4330383;33;33550;-79
2021/12/20 03:51:32;;;;;;;2.97;1.70;;;;;;;6.42;56.89;98961.75;4331539;33;34541;-80
2021/12/20 03:54:00;;;;;;;3.78;1.83;;;;;;;6.77;56.05;98959.19;4330732;33;33652;-80
2021/12/20 03:56:28;;;;;;;4.15;1.90;;;;;;;7.65;53.45;98964.63;4316859;33;35060;-79
2021/12/20 03:58:56;;;;;;;3.90;1.98;;;;;;;7.71;52.72;98957.87;4330389;33;34737;-80
2021/12/20 04:01:25;;;;;;;4.78;2.28;;;;;;;7.99;51.68;98966.19;4330752;33;34690;-82
2021/12/20 04:03:53;;;;;;;5.47;2.05;;;;;;;7.51;53.13;98979.84;4317576;33;33882;-79
2021/12/20 04:06:20;;;;;;;3.55;1.95;;;;;;;7.55;52.93;98979.91;4330200;33;34086;-82
2021/12/20 04:08:48;;;;;;;3.80;1.60;;;;;;;7.14;53.89;98979.00;4330935;33;34924;-79
2021/12/20 04:11:16;;;;;;;4.55;1.80;;;;;;;7.92;51.81;98974.69;4330258;33;33280;-79
2021/12/20 04:13:43;;;;;;;4.50;1.60;;;;;;;8.59;49.46;98978.53;4330274;33;33603;-79
2021/12/20 04:16:11;;;;;;;4.07;1.48;;;;;;;8.25;49.94;98975.31;4330681;33;33956;-81
2021/12/20 04:18:39;;;;;;;3.72;1.75;;;;;;;8.54;49.40;98985.34;4330605;33;34204;-84
2021/12/20 04:21:06;;;;;;;4.45;2.30;;;;;;;8.08;50.60;98975.84;4330188;33;33554;-79
2021/12/20 04:23:34;;;;;;;3.85;2.00;;;;;;;8.08;50.47;98976.72;4316647;33;34021;-79
2021/12/20 04:26:02;;;;;;;3.92;1.80;;;;;;;9.07;47.78;98969.88;4330202;33;33669;-83
2021/12/20 04:28:30;;;;;;;3.80;1.67;;;;;;;9.86;45.89;98971.84;4330394;33;34308;-79
2021/12/20 04:30:59;;;;;;;5.07;2.00;;;;;;;9.82;45.66;98962.28;4330623;33;34641;-84
2021/12/20 04:33:27;;;;;;;6.12;2.25;;;;;;;10.00;44.95;98980.66;4330315;33;33770;-82
2021/12/20 04:35:54;;;;;;;5.43;2.12;;;;;;;9.21;46.73;98976.12;4330568;33;34605;-79
2021/12/20 04:38:25;;;;;;;5.18;2.42;;;;;;;8.27;49.28;98989.13;4330436;33;34416;-83
2021/12/20 04:40:54;;;;;;;7.68;2.50;;;;;;;8.39;49.20;98991.09;4317332;33;34413;-79
2021/12/20 04:43:21;;;;;;;5.55;1.95;;;;;;;8.25;49.11;99001.13;4330005;33;33501;-79
2021/12/20 04:45:48;;;;;;;4.80;2.08;;;;;;;7.88;49.23;98998.66;4330204;33;34803;-79
2021/12/20 04:48:16;;;;;;;4.30;2.20;;;;;;;8.33;48.92;99000.41;4317016;33;35043;-81
2021/12/20 04:50:46;;;;;;;4.32;2.62;;;;;;;8.87;47.00;99002.28;4330018;33;33015;-79
2021/12/20 04:53:13;;;;;;;5.37;1.90;;;;;;;9.59;45.11;99000.81;4329561;33;33344;-81
2021/12/20 04:55:41;;;;;;;5.93;2.00;;;;;;;7.57;49.66;98998.88;4329553;33;35208;-82
2021/12/20 04:58:09;;;;;;;6.03;2.53;;;;;;;7.50;50.02;99003.84;4329979;33;33666;-81
2021/12/20 05:00:43;;;;;;;4.75;2.22;;;;;;;7.52;50.18;99013.38;4329815;33;33680;-80
2021/12/20 05:03:11;;;;;;;5.62;2.65;;;;;;;8.44;47.86;99017.00;4316849;33;33688;-83
2021/12/20 05:05:39;;;;;;;4.80;2.55;;;;;;;7.98;48.56;99016.09;4330403;33;34206;-80
2021/12/20 05:08:07;;;;;;;6.93;3.20;;;;;;;8.15;47.82;99019.03;4304505;33;32946;-79
2021/12/20 05:10:38;;;;;;;5.70;2.55;;;;;;;8.04;48.28;99027.41;4330045;33;34523;-80
2021/12/20 05:13:08;;;;;;;7.68;2.72;;;;;;;7.96;48.26;99035.84;4330230;33;34305;-80
2021/12/20 05:15:36;;;;;;;5.80;2.33;;;;;;;8.50;46.84;99032.66;4329822;33;33794;-80
2021/12/20 05:18:06;;;;;;;6.22;2.67;;;;;;;9.45;44.34;99029.06;4329300;33;34249;-84
2021/12/20 05:20:34;;;;;;;5.90;2.70;;;;;;;9.34;44.68;99033.22;4329328;33;34506;-79
2021/12/20 05:23:04;;;;;;;6.57;2.72;;;;;;;9.17;43.97;99040.72;4330975;33;34116;-83
2021/12/20 05:25:32;;;;;;;5.10;2.40;;;;;;;9.11;44.17;99054.41;4330624;33;33790;-81
2021/12/20 05:27:59;;;;;;;4.97;1.70;;;;;;;9.94;42.31;99053.06;4316260;33;34200;-79
2021/12/20 05:30:27;;;;;;;4.15;2.10;;;;;;;10.50;41.01;99052.06;4331433;33;34608;-79
2021/12/20 05:32:55;;;;;;;6.22;2.62;;;;;;;10.26;40.82;99060.41;4318371;33;33480;-83
2021/12/20 05:35:23;;;;;;;6.18;2.40;;;;;;;9.90;41.29;99059.06;4330867;33;33701;-79
2021/12/20 05:37:51;;;;;;;4.78;2.20;;;;;;;10.02;41.10;99060.94;4327941;33;34879;-79
2021/12/20 05:40:20;;;;;;;7.22;2.95;;;;;;;10.04;41.53;99059.22;4331499;33;32446;-84
2021/12/20 05:42:48;;;;;;;7.15;2.50;;;;;;;10.53;40.29;99072.81;4317954;33;35002;-84
2021/12/20 05:45:17;;;;;;;3.70;1.90;;;;;;;10.07;40.97;99067.91;4331636;33;33883;-80
2021/12/20 05:47:44;;;;;;;5.53;2.50;;;;;;;10.26;40.10;99069.03;4317631;33;33738;-79
2021/12/20 05:50:14;;;;;;;6.53;2.50;;;;;;;10.28;40.22;99069.09;4331476;33;34627;-80
2021/12/20 05:52:42;;;;;;;6.18;2.28;;;;;;;9.31;42.25;99070.25;4331256;33;33693;-85
2021/12/20 05:55:09;;;;;;;4.47;2.35;;;;;;;10.01;40.66;99070.44;4318258;33;34358;-80
2021/12/20 05:57:37;;;;;;;7.03;3.50;;;;;;;9.97;40.81;99076.41;4331621;33;34104;-85
2021/12/20 06:00:08;;;;;;;6.15;2.97;;;;;;;9.47;41.94;99076.53;4331439;33;33387;-83
2021/12/20 06:02:41;;;;;;;4.60;2.23;;;;;;;9.93;40.85;99083.28;4327102;33;33895;-79
2021/12/20 06:05:09;;;;;;;6.53;3.47;;;;;;;9.92;40.75;99089.28;4331128;33;33848;-82
2021/12/20 06:07:40;;;;;;;7.43;2.78;;;;;;;8.43;44.29;99100.53;4331115;33;34467;-80
2021/12/20 06:10:12;;;;;;;7.00;2.80;;;;;;;9.25;42.35;99094.31;4331189;33;33256;-79
2021/12/20 06:12:40;;;;;;;6.68;2.95;;;;;;;8.79;43.51;99105.56;4331582;33;33951;-80
2021/12/20 06:15:08;;;;;;;6.30;3.33;;;;;;;8.96;43.04;99101.56;4331553;33;34103;-81
2021/12/20 06:17:36;;;;;;;7.62;2.72;;;;;;;8.52;43.77;99098.12;4331376;33;34293;-80
2021/12/20 06:20:06;;;;;;;10.20;3.42;;;;;;;9.32;41.91;99095.28;4331336;33;33855;-84
2021/12/20 06:22:33;;;;;;;5.37;2.78;;;;;;;9.05;42.19;99108.59;4331427;33;35026;-81
2021/12/20 06:25:00;;;;;;;6.25;2.75;;;;;;;8.35;43.83;99120.12;4330538;33;34993;-81
2021/12/20 06:27:28;;;;;;;5.78;2.17;;;;;;;8.50;43.40;99121.34;4331437;33;33902;-81
2021/12/20 06:29:56;;;;;;;6.87;2.58;;;;;;;9.24;41.53;99126.22;4330821;33;34515;-81
2021/12/20 06:32:23;;;;;;;5.97;2.70;;;;;;;8.34;43.79;99121.84;4331107;33;34777;-83
2021/12/20 06:34:51;;;;;;;7.68;3.50;;;;;;;8.90;42.37;99123.84;4330927;33;34308;-80
2021/12/20 06:37:18;;;;;;;7.65;3.08;;;;;;;8.10;44.26;99129.94;4331389;33;34122;-80
2021/12/20 06:39:45;;;;;;;7.30;3.47;;;;;;;7.47;45.63;99143.09;4331052;33;33530;-81
2021/12/20 06:42:13;;;;;;;8.10;2.65;;;;;;;8.04;44.71;99135.84;4331287;33;34507;-81
2021/12/20 06:44:41;;;;;;;6.12;2.37;;;;;;;8.11;44.01;99131.69;4331413;33;34731;-80
2021/12/20 06:47:09;;;;;;;8.38;3.00;;;;;;;8.59;42.97;99131.00;4317689;33;33731;-80
2021/12/20 06:49:37;;;;;;;8.07;2.90;;;;;;;8.68;42.71;99131.19;4331203;33;33721;-80
2021/12/20 06:52:05;;;;;;;6.60;2.78;;;;;;;9.01;42.05;99140.41;4330918;33;34617;-85
2021/12/20 06:54:32;;;;;;;5.87;2.85;;;;;;;8.60;42.73;99156.03;4331169;33;35502;-81
2021/12/20 06:57:00;;;;;;;8.23;2.85;;;;;;;9.42;41.02;99153.22;4329957;33;34187;-77
2021/12/20 06:59:27;;;;;;;5.90;2.90;;;;;;;9.43;41.20;99150.69;4317046;33;33365;-78
2021/12/20 07:01:55;;;;;;;5.60;2.80;;;;;;;9.71;40.00;99136.47;4331261;33;33996;-85
2021/12/20 07:04:22;;;;;;;4.30;2.22;;;;;;;10.08;39.43;99137.00;4331054;33;34954;-79
2021/12/20 07:06:52;;;;;;;5.82;2.58;;;;;;;10.24;39.12;99146.72;4330656;33;35106;-79
2021/12/20 07:09:20;;;;;;;6.45;2.72;;;;;;;10.04;39.39;99150.78;4331056;33;34650;-81
2021/12/20 07:11:47;;;;;;;5.30;2.65;;;;;;;9.82;39.68;99159.94;4331176;33;34072;-80
2021/12/20 07:14:15;;;;;;;6.35;2.95;;;;;;;9.45;40.43;99161.03;4331276;33;34263;-80
2021/12/20 07:16:42;;;;;;;7.97;2.83;;;;;;;9.97;39.78;99159.28;4330267;33;34974;-80
2021/12/20 07:19:10;;;;;;;5.40;3.00;;;;;;;9.40;40.52;99155.78;4330982;33;33316;-80
2021/12/20 07:21:37;;;;;;;6.47;2.90;;;;;;;9.57;40.23;99157.78;4330599;33;34573;-78
2021/12/20 07:24:05;;;;;;;9.20;3.10;;;;;;;8.46;42.41;99158.31;4330580;33;34178;-79
2021/12/20 07:26:33;;;;;;;7.18;2.80;;;;;;;8.53;42.01;99156.72;4326902;33;35000;-77
2021/12/20 07:29:00;;;;;;;9.00;3.33;;;;;;;9.00;41.21;99159.38;4311344;33;34683;-77
2021/12/20 07:31:28;;;;;;;8.18;3.55;;;;;;;8.15;42.72;99151.59;4315497;33;33673;-79
2021/12/20 07:33:55;;;;;;;6.68;3.22;;;;;;;8.50;42.14;99164.41;4330511;33;34016;-76
2021/12/20 07:36:23;;;;;;;6.55;2.60;;;;;;;8.34;42.47;99155.44;4330567;33;33872;-78
2021/12/20 07:38:51;;;;;;;6.12;2.62;;;;;;;8.04;43.31;99156.50;4331176;33;33257;-79
2021/12/20 07:41:20;;;;;;;8.55;2.75;;;;;;;6.44;46.14;99148.09;4330846;33;33784;-80
2021/12/20 07:43:49;;;;;;;6.70;2.92;;;;;;;5.82;48.46;99153.06;4329715;33;33851;-81
2021/12/20 07:46:17;;;;;;;6.90;3.08;;;;;;;6.88;45.71;99143.28;4315459;33;34978;-78
2021/12/20 07:48:45;;;;;;;8.75;3.53;;;;;;;6.52;47.11;99148.31;4317239;33;33732;-79
2021/12/20 07:51:13;;;;;;;8.40;2.78;;;;;;;6.52;47.29;99148.31;4330399;33;34681;-80
2021/12/20 07:53:41;;;;;;;9.55;2.85;;;;;;;6.78;46.49;99146.44;4330025;33;34184;-81
2021/12/20 07:56:09;;;;;;;32.95;14.38;;;;;;;6.15;48.22;99152.38;4330345;33;33503;-84
2021/12/20 07:58:39;;;;;;;9.98;4.50;;;;;;;6.02;48.96;99147.69;4317979;33;33764;-78
2021/12/20 08:01:07;;;;;;;6.85;2.72;;;;;;;5.46;50.87;99164.75;4329290;33;34179;-78
2021/12/20 08:03:35;;;;;;;9.18;3.35;;;;;;;5.90;49.12;99168.72;4331126;33;35132;-80
2021/12/20 08:06:03;;;;;;;7.07;3.10;;;;;;;5.25;51.80;99176.03;4330104;33;34282;-80
2021/12/20 08:08:30;;;;;;;10.02;3.60;;;;;;;4.92;52.50;99173.19;4330844;33;33444;-80
2021/12/20 08:10:58;;;;;;;6.57;3.15;;;;;;;5.65;51.11;99173.94;4317162;33;33649;-79
2021/12/20 08:13:25;;;;;;;8.80;3.35;;;;;;;5.49;51.74;99177.69;4331014;33;33773;-79
2021/12/20 08:15:54;;;;;;;8.07;3.15;;;;;;;5.19;52.23;99177.53;4330243;33;34361;-79
2021/12/20 08:18:21;;;;;;;9.20;3.28;;;;;;;6.01;50.09;99179.38;4329771;33;33485;-80
2021/12/20 08:20:49;;;;;;;8.77;2.92;;;;;;;6.18;49.51;99178.22;4330815;33;34041;-78
2021/12/20 08:23:17;;;;;;;6.50;2.58;;;;;;;7.37;46.87;99174.66;4329728;33;34216;-79
2021/12/20 08:25:45;;;;;;;5.50;2.72;;;;;;;6.30;49.20;99162.25;4317771;33;34168;-78
2021/12/20 08:28:12;;;;;;;6.78;2.70;;;;;;;6.20;49.22;99184.28;4317447;33;33530;-80
2021/12/20 08:30:39;;;;;;;8.02;3.50;;;;;;;5.60;50.49;99172.06;4330620;33;33712;-78
2021/12/20 08:33:07;;;;;;;6.50;2.20;;;;;;;6.10;49.33;99179.69;4330690;33;33655;-78
2021/12/20 08:35:35;;;;;;;5.82;2.33;;;;;;;5.70;49.32;99178.41;4330822;33;34181;-78
2021/12/20 08:38:02;;;;;;;6.03;2.47;;;;;;;6.09;48.64;99177.91;4316969;33;34441;-77
2021/12/20 08:40:30;;;;;;;5.78;2.03;;;;;;;6.52;47.54;99174.06;4330895;33;34519;-79
2021/12/20 08:42:57;;;;;;;5.50;2.35;;;;;;;5.41;49.84;99171.41;4330734;33;34900;-78
2021/12/20 08:45:26;;;;;;;6.90;2.30;;;;;;;5.28;50.22;99177.84;4330624;33;33414;-80
2021/12/20 08:47:54;;;;;;;6.40;2.20;;;;;;;5.49;48.97;99175.12;4317392;33;34565;-80
2021/12/20 08:50:23;;;;;;;6.72;2.15;;;;;;;5.33;49.29;99182.31;4329968;33;34000;-78
2021/12/20 08:52:51;;;;;;;6.87;2.33;;;;;;;5.69;49.39;99186.94;4330457;33;33585;-78
2021/12/20 08:55:19;;;;;;;4.05;2.03;;;;;;;5.19;50.28;99178.44;4316848;33;34115;-79
2021/12/20 08:57:47;;;;;;;6.30;2.40;;;;;;;6.06;48.62;99163.28;4330044;33;34429;-79
2021/12/20 09:00:18;;;;;;;7.90;2.45;;;;;;;6.15;48.14;99162.69;4329945;33;34679;-78
2021/12/20 09:02:47;;;;;;;6.70;2.00;;;;;;;5.77;47.84;99170.06;4329769;33;34198;-78
2021/12/20 09:05:15;;;;;;;5.45;2.30;;;;;;;6.20;47.76;99192.00;4330082;33;34950;-78
2021/12/20 09:07:42;;;;;;;3.92;1.70;;;;;;;5.81;48.19;99189.91;4330407;33;33223;-84
2021/12/20 09:10:12;;;;;;;4.95;2.00;;;;;;;6.02;47.47;99191.44;4329636;33;34174;-78
2021/12/20 09:12:40;;;;;;;5.65;1.70;;;;;;;5.97;48.09;99196.44;4330402;33;34154;-85
2021/12/20 09:15:15;;;;;;;4.95;1.90;;;;;;;6.60;45.90;99203.50;4330416;33;33753;-84
2021/12/20 09:17:45;;;;;;;3.20;1.60;;;;;;;7.35;44.15;99207.25;4329823;33;34353;-78
2021/12/20 09:20:14;;;;;;;5.75;1.80;;;;;;;6.86;45.07;99199.09;4329567;33;34860;-81
2021/12/20 09:22:56;;;;;;;4.40;1.40;;;;;;;5.60;47.21;99213.22;4329996;33;34400;-83
2021/12/20 09:25:26;;;;;;;3.70;1.55;;;;;;;6.28;45.57;99207.66;4317463;33;33828;-85
2021/12/20 09:27:56;;;;;;;4.95;1.58;;;;;;;5.50;47.04;99218.91;4329751;33;34596;-78
2021/12/20 09:30:28;;;;;;;4.32;1.42;;;;;;;6.30;45.45;99204.31;4329084;33;33528;-84
2021/12/20 09:33:01;;;;;;;4.12;1.65;;;;;;;6.92;43.98;99206.97;4329152;33;34274;-81
2021/12/20 09:35:28;;;;;;;5.82;1.90;;;;;;;6.28;45.02;99193.09;4316755;33;33910;-78
2021/12/20 09:37:56;;;;;;;3.58;1.55;;;;;;;6.61;44.10;99201.78;4329159;33;33563;-78
2021/12/20 09:40:37;;;;;;;5.37;1.67;;;;;;;6.74;44.39;99201.28;4329767;33;33930;-78
2021/12/20 09:43:08;;;;;;;3.40;1.50;;;;;;;6.98;43.43;99206.28;4329974;33;34092;-78
2021/12/20 09:45:36;;;;;;;5.10;1.62;;;;;;;7.24;43.21;99188.94;4329378;33;34924;-82
2021/12/20 09:48:04;;;;;;;4.85;2.10;;;;;;;6.37;45.00;99199.38;4329471;33;33834;-81
2021/12/20 09:50:32;;;;;;;4.60;1.70;;;;;;;6.21;45.54;99201.50;4316193;33;33639;-78
2021/12/20 09:53:04;;;;;;;3.53;1.50;;;;;;;6.39;45.40;99189.97;4315016;33;34075;-78
2021/12/20 09:55:32;;;;;;;3.62;1.70;;;;;;;6.52;45.17;99207.56;4317526;33;33918;-80
2021/12/20 09:58:02;;;;;;;2.80;1.30;;;;;;;6.01;46.10;99198.28;4316124;33;34359;-79
2021/12/20 10:00:31;;;;;;;5.07;1.58;;;;;;;6.32;45.80;99174.34;4316276;33;33574;-79
2021/12/20 10:02:59;;;;;;;8.88;2.85;;;;;;;6.16;45.70;99179.84;4329498;33;34257;-79
2021/12/20 10:05:26;;;;;;;6.80;1.87;;;;;;;6.18;45.90;99175.66;4329031;33;33860;-79
2021/12/20 10:07:56;;;;;;;3.95;1.60;;;;;;;6.56;45.58;99181.06;4329922;33;33454;-79
2021/12/20 10:11:06;;;;;;;5.15;1.62;;;;;;;6.01;46.65;99189.69;4331791;33;33969;-79
2021/12/20 10:13:36;;;;;;;3.97;1.48;;;;;;;5.49;47.97;99183.72;4285967;33;35066;-81
2021/12/20 10:16:20;;;;;;;3.85;1.40;;;;;;;6.00;47.09;99173.38;4306128;33;34815;-80
2021/12/20 10:18:49;;;;;;;4.47;1.70;;;;;;;5.75;46.62;99192.25;4319418;33;33739;-79
2021/12/20 10:21:16;;;;;;;4.62;1.70;;;;;;;5.61;47.46;99186.69;4318338;33;34409;-79
2021/12/20 10:23:46;;;;;;;7.28;1.67;;;;;;;5.37;47.83;99188.44;4331108;33;34052;-79
2021/12/20 10:26:19;;;;;;;4.68;1.67;;;;;;;5.74;47.42;99205.97;4324915;33;34979;-76
2021/12/20 10:28:51;;;;;;;4.72;1.87;;;;;;;6.30;45.75;99204.31;4315931;33;33816;-80
2021/12/20 10:31:21;;;;;;;18.55;2.45;;;;;;;5.93;47.24;99197.16;4326687;33;33766;-80
2021/12/20 10:34:00;;;;;;;5.32;2.00;;;;;;;5.73;47.73;99219.66;4316888;33;33879;-79
2021/12/20 10:36:30;;;;;;;4.25;1.95;;;;;;;5.72;47.80;99212.78;4318088;33;34393;-86
2021/12/20 10:39:00;;;;;;;5.03;2.08;;;;;;;5.48;48.15;99211.94;4330293;33;33230;-76
2021/12/20 10:41:38;;;;;;;5.55;1.77;;;;;;;6.38;46.52;99226.88;4330920;33;34117;-78
2021/12/20 10:44:17;;;;;;;6.07;2.28;;;;;;;5.81;47.89;99236.22;4330728;33;35110;-79
2021/12/20 10:46:48;;;;;;;3.87;1.70;;;;;;;5.67;48.38;99223.72;4306077;33;34389;-85
2021/12/20 10:49:18;;;;;;;5.60;2.17;;;;;;;5.79;47.64;99213.81;4297629;33;33223;-83
2021/12/20 10:51:48;;;;;;;8.07;2.87;;;;;;;6.27;46.49;99224.81;4331226;33;33861;-84
2021/12/20 10:54:20;;;;;;;5.47;2.22;;;;;;;6.45;46.18;99228.81;4315710;33;34964;-82
2021/12/20 10:57:01;;;;;;;4.60;2.05;;;;;;;5.60;48.31;99233.78;4310589;33;35107;-81
2021/12/20 10:59:35;;;;;;;6.95;2.42;;;;;;;6.06;47.54;99222.47;4331089;33;34368;-79
2021/12/20 11:04:59;;;;;;;5.00;2.22;;;;;;;5.50;49.36;99228.31;4313430;33;34059;-80
2021/12/20 11:10:04;;;;;;;3.58;1.90;;;;;;;6.47;47.18;99212.53;4329844;33;34268;-82
2021/12/20 11:12:33;;;;;;;5.60;2.47;;;;;;;6.25;48.23;99211.06;4331162;33;33337;-81
2021/12/20 11:15:08;;;;;;;4.97;2.00;;;;;;;5.67;49.55;99211.72;4305539;33;34701;-80
2021/12/20 11:17:40;;;;;;;5.40;1.80;;;;;;;6.60;47.61;99203.50;4319328;33;34204;-81
2021/12/20 11:20:08;;;;;;;5.80;2.00;;;;;;;7.18;45.75;99207.69;4325064;33;33558;-80
2021/12/20 11:22:36;;;;;;;6.53;3.80;;;;;;;6.62;46.68;99206.97;4328221;33;33970;-83
2021/12/20 11:25:07;;;;;;;7.57;2.47;;;;;;;7.26;44.87;99208.75;4319306;33;34610;-84
2021/12/20 11:27:42;;;;;;;4.20;2.20;;;;;;;6.63;46.43;99203.59;4304292;33;34974;-81
2021/12/20 11:30:16;;;;;;;6.37;2.55;;;;;;;6.32;47.54;99223.25;4314488;33;34420;-79
2021/12/20 11:32:46;;;;;;;5.15;1.92;;;;;;;6.12;47.67;99218.34;4302813;33;33730;-78
2021/12/20 11:35:15;;;;;;;6.35;2.40;;;;;;;5.94;46.63;99216.03;4329594;33;34110;-80
2021/12/20 11:37:43;;;;;;;4.97;1.92;;;;;;;6.34;46.25;99224.19;4329636;33;33776;-82
2021/12/20 11:40:13;;;;;;;6.07;2.05;;;;;;;5.70;48.11;99214.41;4327742;33;32969;-83
2021/12/20 11:42:41;;;;;;;6.10;2.40;;;;;;;6.62;46.34;99209.53;4329574;33;33754;-82
2021/12/20 11:45:10;;;;;;;5.28;2.42;;;;;;;6.96;45.03;99218.25;4329125;33;34054;-79
2021/12/20 11:48:05;;;;;;;4.00;1.92;;;;;;;6.48;47.07;99219.47;4316783;33;33922;-83
2021/12/20 11:50:36;;;;;;;6.35;2.12;;;;;;;6.63;46.58;99226.78;4315535;33;33684;-80
2021/12/20 11:53:09;;;;;;;4.87;2.00;;;;;;;6.18;47.29;99229.69;4327850;33;34001;-80
2021/12/20 11:55:39;;;;;;;5.90;1.90;;;;;;;5.65;48.66;99227.94;4300910;33;34583;-79
2021/12/20 11:58:22;;;;;;;4.30;1.87;;;;;;;5.68;48.31;99223.75;4302327;33;34141;-79
2021/12/20 12:00:52;;;;;;;4.55;2.80;;;;;;;6.63;46.19;99225.88;4317607;33;35222;-79
2021/12/20 12:03:27;;;;;;;4.37;2.10;;;;;;;5.81;48.24;99219.91;4317112;33;33872;-79
2021/12/20 12:06:10;;;;;;;3.75;1.60;;;;;;;6.32;47.43;99225.81;4330510;33;35087;-80
2021/12/20 12:08:39;;;;;;;3.62;1.67;;;;;;;6.45;46.63;99229.66;4330126;33;35708;-86
2021/12/20 12:11:07;;;;;;;4.85;2.30;;;;;;;6.99;45.59;99228.63;4329405;33;33437;-82
2021/12/20 12:13:45;;;;;;;5.50;1.92;;;;;;;6.47;47.15;99227.12;4327384;33;33436;-86
2021/12/20 12:16:30;;;;;;;5.97;2.22;;;;;;;7.30;45.25;99236.38;4329596;33;34973;-82